createdAt,value
2017-08-31T00:00:05.558Z,7.77
2017-08-31T00:02:33.655Z,7.30
2017-08-31T00:05:01.760Z,8.10
2017-08-31T00:07:29.847Z,7.60
2017-08-31T00:09:57.951Z,7.83
2017-08-31T00:12:26.049Z,7.43
2017-08-31T00:14:54.123Z,7.67
2017-08-31T00:17:22.224Z,7.27
2017-08-31T00:19:50.312Z,7.77
2017-08-31T00:22:18.407Z,8.53
2017-08-31T00:24:46.496Z,7.80
2017-08-31T00:27:14.600Z,8.83
2017-08-31T00:29:42.685Z,9.30
2017-08-31T00:32:10.776Z,9.17
2017-08-31T00:34:38.868Z,8.50
2017-08-31T00:37:06.960Z,8.37
2017-08-31T00:39:35.035Z,9.37
2017-08-31T00:42:03.125Z,8.30
2017-08-31T00:44:31.207Z,8.50
2017-08-31T00:46:59.295Z,7.90
2017-08-31T00:49:27.531Z,7.90
2017-08-31T00:51:55.603Z,8.50
2017-08-31T00:54:23.716Z,8.70
2017-08-31T00:56:51.806Z,8.33
2017-08-31T00:59:19.910Z,7.20
2017-08-31T01:01:47.990Z,7.40
2017-08-31T01:04:16.107Z,8.43
2017-08-31T01:06:44.186Z,8.13
2017-08-31T01:09:12.283Z,7.23
2017-08-31T01:11:40.376Z,7.87
2017-08-31T01:14:08.460Z,7.13
2017-08-31T01:16:36.544Z,8.27
2017-08-31T01:19:04.617Z,7.13
2017-08-31T01:21:32.715Z,8.50
2017-08-31T01:24:00.803Z,8.13
2017-08-31T01:26:28.903Z,8.07
2017-08-31T01:28:56.976Z,7.50
2017-08-31T01:31:25.065Z,8.40
2017-08-31T01:33:53.159Z,8.80
2017-08-31T01:36:21.259Z,8.23
2017-08-31T01:38:49.347Z,7.90
2017-08-31T01:41:17.442Z,7.50
2017-08-31T01:43:45.537Z,7.80
2017-08-31T01:46:13.648Z,7.80
2017-08-31T01:48:41.728Z,7.70
2017-08-31T01:51:09.812Z,8.00
2017-08-31T01:53:37.913Z,7.20
2017-08-31T01:56:06.002Z,6.40
2017-08-31T01:58:34.108Z,7.40
2017-08-31T02:01:02.197Z,7.47
2017-08-31T02:03:30.302Z,7.50
2017-08-31T02:05:58.368Z,6.90
2017-08-31T02:08:26.527Z,7.60
2017-08-31T02:10:54.615Z,7.03
2017-08-31T02:13:22.701Z,7.03
2017-08-31T02:15:50.820Z,7.73
2017-08-31T02:18:18.928Z,7.67
2017-08-31T02:20:47.015Z,7.10
2017-08-31T02:23:15.103Z,8.10
2017-08-31T02:25:43.416Z,7.03
2017-08-31T02:28:11.518Z,6.53
2017-08-31T02:30:39.609Z,7.17
2017-08-31T02:33:07.692Z,6.93
2017-08-31T02:35:35.790Z,7.83
2017-08-31T02:38:03.879Z,7.70
2017-08-31T02:40:31.972Z,8.07
2017-08-31T02:43:00.053Z,8.30
2017-08-31T02:45:28.161Z,8.30
2017-08-31T02:47:56.228Z,7.90
2017-08-31T02:50:24.316Z,8.03
2017-08-31T02:52:52.419Z,8.20
2017-08-31T02:55:20.504Z,8.53
2017-08-31T02:57:48.601Z,8.17
2017-08-31T03:00:16.680Z,8.00
2017-08-31T03:02:44.776Z,9.10
2017-08-31T03:05:12.868Z,8.10
2017-08-31T03:07:41.051Z,9.50
2017-08-31T03:10:09.136Z,8.90
2017-08-31T03:12:37.247Z,10.07
2017-08-31T03:15:05.332Z,9.40
2017-08-31T03:17:33.471Z,8.87
2017-08-31T03:20:01.563Z,9.77
2017-08-31T03:22:29.636Z,9.30
2017-08-31T03:24:57.730Z,8.80
2017-08-31T03:27:25.807Z,10.57
2017-08-31T03:29:53.898Z,10.37
2017-08-31T03:32:21.995Z,10.70
2017-08-31T03:34:50.092Z,9.90
2017-08-31T03:37:18.174Z,9.70
2017-08-31T03:39:46.265Z,8.83
2017-08-31T03:42:14.346Z,9.07
2017-08-31T03:44:42.451Z,9.17
2017-08-31T03:47:10.565Z,9.27
2017-08-31T03:49:38.646Z,9.43
2017-08-31T03:52:06.736Z,8.90
2017-08-31T03:54:34.825Z,9.10
2017-08-31T03:57:03.137Z,9.87
2017-08-31T03:59:31.224Z,9.00
2017-08-31T04:01:59.308Z,10.00
2017-08-31T04:04:27.394Z,10.47
2017-08-31T04:06:55.484Z,11.37
2017-08-31T04:09:23.574Z,10.90
2017-08-31T04:11:51.672Z,8.90
2017-08-31T04:14:19.762Z,8.27
2017-08-31T04:16:47.855Z,8.53
2017-08-31T04:19:15.947Z,9.70
2017-08-31T04:21:44.035Z,9.57
2017-08-31T04:24:12.120Z,8.63
2017-08-31T04:26:40.221Z,11.40
2017-08-31T04:29:08.310Z,10.20
2017-08-31T04:31:36.382Z,10.50
2017-08-31T04:34:04.484Z,10.37
2017-08-31T04:36:32.574Z,10.40
2017-08-31T04:39:00.701Z,10.43
2017-08-31T04:41:28.797Z,10.53
2017-08-31T04:43:56.917Z,9.57
2017-08-31T04:46:24.991Z,8.93
2017-08-31T04:48:53.095Z,9.20
2017-08-31T04:51:21.204Z,10.03
2017-08-31T04:53:50.063Z,10.87
2017-08-31T04:56:18.173Z,10.77
2017-08-31T04:58:46.247Z,9.60
2017-08-31T05:01:14.343Z,10.80
2017-08-31T05:03:42.439Z,9.90
2017-08-31T05:06:10.565Z,9.53
2017-08-31T05:08:41.037Z,9.20
2017-08-31T05:11:09.366Z,9.87
2017-08-31T05:13:40.463Z,10.43
2017-08-31T05:16:08.722Z,9.70
2017-08-31T05:18:46.107Z,10.23
2017-08-31T05:21:14.281Z,10.33
2017-08-31T05:29:48.714Z,11.10
2017-08-31T05:32:16.851Z,10.63
2017-08-31T05:34:44.931Z,10.40
2017-08-31T05:37:13.013Z,10.33
2017-08-31T05:39:41.107Z,11.13
2017-08-31T05:42:09.191Z,10.73
2017-08-31T05:44:37.301Z,11.40
2017-08-31T05:47:05.384Z,11.00
2017-08-31T05:49:33.466Z,11.10
2017-08-31T05:54:49.416Z,11.23
2017-08-31T05:57:21.544Z,12.10
2017-08-31T05:59:49.673Z,11.10
2017-08-31T06:02:17.752Z,9.80
2017-08-31T06:04:45.881Z,8.93
2017-08-31T06:07:13.997Z,8.90
2017-08-31T06:09:42.100Z,9.20
2017-08-31T06:12:10.193Z,8.47
2017-08-31T06:14:38.293Z,8.17
2017-08-31T06:17:06.385Z,7.80
2017-08-31T06:19:34.477Z,7.40
2017-08-31T06:22:02.576Z,7.23
2017-08-31T06:24:30.670Z,8.03
2017-08-31T06:26:58.773Z,7.80
2017-08-31T06:29:26.869Z,8.33
2017-08-31T06:31:54.964Z,8.87
2017-08-31T06:34:23.052Z,7.80
2017-08-31T06:36:51.181Z,8.73
2017-08-31T06:39:19.330Z,8.23
2017-08-31T06:41:47.432Z,9.17
2017-08-31T06:44:15.533Z,8.07
2017-08-31T06:46:43.625Z,8.33
2017-08-31T06:49:11.761Z,7.93
2017-08-31T06:51:39.853Z,8.00
2017-08-31T06:54:07.968Z,7.80
2017-08-31T06:56:36.082Z,7.67
2017-08-31T06:59:04.353Z,7.60
2017-08-31T07:01:32.448Z,7.37
2017-08-31T07:04:00.552Z,7.40
2017-08-31T07:06:28.667Z,7.77
2017-08-31T07:08:56.772Z,8.20
2017-08-31T07:11:24.853Z,7.63
2017-08-31T07:13:52.956Z,6.97
2017-08-31T07:16:21.848Z,6.90
2017-08-31T07:18:49.960Z,6.40
2017-08-31T07:21:18.062Z,5.93
2017-08-31T07:23:46.160Z,6.00
2017-08-31T07:26:14.275Z,6.80
2017-08-31T07:28:42.418Z,5.87
2017-08-31T07:31:10.517Z,6.00
2017-08-31T07:33:38.626Z,5.80
2017-08-31T07:36:06.732Z,5.50
2017-08-31T07:38:34.856Z,6.47
2017-08-31T07:41:02.948Z,6.50
2017-08-31T07:43:31.057Z,5.63
2017-08-31T07:45:59.166Z,6.77
2017-08-31T07:48:27.288Z,8.30
2017-08-31T07:50:55.387Z,7.37
2017-08-31T07:53:23.492Z,7.00
2017-08-31T07:55:51.576Z,7.53
2017-08-31T07:58:20.237Z,7.90
2017-08-31T08:00:48.324Z,8.47
2017-08-31T08:03:16.437Z,7.63
2017-08-31T08:05:44.524Z,8.57
2017-08-31T08:08:12.632Z,8.27
2017-08-31T08:10:40.730Z,9.20
2017-08-31T08:13:08.859Z,7.13
2017-08-31T08:15:36.975Z,7.60
2017-08-31T08:18:05.092Z,7.43
2017-08-31T08:20:33.440Z,7.37
2017-08-31T08:23:01.658Z,7.60
2017-08-31T08:25:29.784Z,8.03
2017-08-31T08:27:57.883Z,7.30
2017-08-31T08:30:25.995Z,6.40
2017-08-31T08:32:54.087Z,7.10
2017-08-31T08:35:22.186Z,5.73
2017-08-31T08:37:50.297Z,5.87
2017-08-31T08:40:18.406Z,5.73
2017-08-31T08:42:46.524Z,5.03
2017-08-31T08:45:14.632Z,4.67
2017-08-31T08:47:42.727Z,4.20
2017-08-31T08:50:10.851Z,4.77
2017-08-31T08:52:38.947Z,4.13
2017-08-31T08:55:07.059Z,4.77
2017-08-31T08:57:35.173Z,5.07
2017-08-31T09:00:03.280Z,4.40
2017-08-31T09:02:31.362Z,5.40
2017-08-31T09:04:59.445Z,4.50
2017-08-31T09:07:27.528Z,4.90
2017-08-31T09:09:55.620Z,4.33
2017-08-31T09:12:23.807Z,4.70
2017-08-31T09:14:52.180Z,4.63
2017-08-31T09:17:20.312Z,4.23
2017-08-31T09:19:48.421Z,4.50
2017-08-31T09:22:16.532Z,4.47
2017-08-31T09:24:44.617Z,4.20
2017-08-31T09:27:12.718Z,4.80
2017-08-31T09:29:40.861Z,4.20
2017-08-31T09:32:08.924Z,4.00
2017-08-31T09:34:37.012Z,3.70
2017-08-31T09:37:05.100Z,5.07
2017-08-31T09:39:33.255Z,3.50
2017-08-31T09:42:01.607Z,4.13
2017-08-31T09:44:29.737Z,3.47
2017-08-31T09:46:57.853Z,3.00
2017-08-31T09:49:25.981Z,3.43
2017-08-31T09:51:54.082Z,3.40
2017-08-31T09:54:22.173Z,3.30
2017-08-31T09:56:50.268Z,3.53
2017-08-31T09:59:18.347Z,3.77
2017-08-31T10:01:46.492Z,2.87
2017-08-31T10:04:14.593Z,3.70
2017-08-31T10:06:42.692Z,3.60
2017-08-31T10:09:10.783Z,3.60
2017-08-31T10:11:38.872Z,3.57
2017-08-31T10:14:06.961Z,3.20
2017-08-31T10:16:35.075Z,3.93
2017-08-31T10:19:03.201Z,3.80
2017-08-31T10:21:31.305Z,3.70
2017-08-31T10:23:59.432Z,3.47
2017-08-31T10:26:27.584Z,3.17
2017-08-31T10:28:55.669Z,3.50
2017-08-31T10:31:23.764Z,3.60
2017-08-31T10:33:51.869Z,4.20
2017-08-31T10:36:19.964Z,4.40
2017-08-31T10:38:48.296Z,3.80
2017-08-31T10:41:16.422Z,3.97
2017-08-31T10:43:44.637Z,4.13
2017-08-31T10:46:12.788Z,3.47
2017-08-31T10:48:41.018Z,3.43
2017-08-31T10:51:09.170Z,3.37
2017-08-31T10:53:37.265Z,3.30
2017-08-31T10:56:05.432Z,3.40
2017-08-31T10:58:33.608Z,2.87
2017-08-31T11:01:01.788Z,3.23
2017-08-31T11:03:29.874Z,3.33
2017-08-31T11:05:58.011Z,3.60
2017-08-31T11:08:26.100Z,3.17
2017-08-31T11:10:54.229Z,3.57
2017-08-31T11:13:22.408Z,2.87
2017-08-31T11:15:50.516Z,3.27
2017-08-31T11:18:18.612Z,3.30
2017-08-31T11:20:46.725Z,3.07
2017-08-31T11:23:14.795Z,3.20
2017-08-31T11:25:42.879Z,3.50
2017-08-31T11:28:10.961Z,3.10
2017-08-31T11:30:40.041Z,3.80
2017-08-31T11:33:08.111Z,2.90
2017-08-31T11:35:36.167Z,3.30
2017-08-31T11:38:04.787Z,4.10
2017-08-31T11:40:32.851Z,3.20
2017-08-31T11:43:01.293Z,3.90
2017-08-31T11:45:29.419Z,4.00
2017-08-31T11:47:57.653Z,3.30
2017-08-31T11:50:25.884Z,2.77
2017-08-31T11:52:54.073Z,2.80
2017-08-31T11:55:22.201Z,2.60
2017-08-31T11:57:50.335Z,2.43
2017-08-31T12:00:18.593Z,3.33
2017-08-31T12:02:46.823Z,3.10
2017-08-31T12:05:14.948Z,2.20
2017-08-31T12:07:43.141Z,2.50
2017-08-31T12:10:11.284Z,3.23
2017-08-31T12:12:39.396Z,2.53
2017-08-31T12:15:07.552Z,2.57
2017-08-31T12:17:35.680Z,2.83
2017-08-31T12:20:03.856Z,2.30
2017-08-31T12:22:31.973Z,2.60
2017-08-31T12:25:00.101Z,2.73
2017-08-31T12:27:28.245Z,3.43
2017-08-31T12:29:56.460Z,3.17
2017-08-31T12:32:24.585Z,2.80
2017-08-31T12:34:52.727Z,3.60
2017-08-31T12:37:20.889Z,3.40
2017-08-31T12:39:48.993Z,3.50
2017-08-31T12:42:17.598Z,3.27
2017-08-31T12:44:45.736Z,2.90
2017-08-31T12:47:13.947Z,2.70
2017-08-31T16:19:32.237Z,2.00
2017-08-31T16:22:00.337Z,2.20
2017-08-31T16:24:28.410Z,2.20
2017-08-31T16:26:56.532Z,2.00
2017-08-31T16:29:24.618Z,2.67
2017-08-31T16:31:52.771Z,1.90
2017-08-31T16:34:20.860Z,2.40
2017-08-31T18:01:27.705Z,3.50
2017-08-31T18:03:55.805Z,3.47
2017-08-31T18:06:23.903Z,3.63
2017-08-31T18:08:51.975Z,4.90
2017-08-31T18:11:20.047Z,4.57
2017-08-31T18:13:48.142Z,3.93
2017-08-31T18:16:16.214Z,3.53
2017-08-31T18:18:44.315Z,3.40
2017-08-31T18:21:12.409Z,3.63
2017-08-31T18:23:40.480Z,5.30
2017-08-31T18:26:08.564Z,4.20
2017-08-31T18:28:36.650Z,4.20
2017-08-31T18:31:18.538Z,4.77
2017-08-31T18:36:35.288Z,4.20
2017-08-31T18:39:22.956Z,5.07
2017-08-31T18:42:21.015Z,5.33
2017-08-31T18:44:55.176Z,4.80
2017-08-31T18:47:26.388Z,4.60
2017-08-31T18:50:07.984Z,4.30
2017-08-31T18:52:37.878Z,4.37
2017-08-31T18:55:08.037Z,4.87
2017-08-31T18:57:38.559Z,3.50
2017-08-31T19:00:07.236Z,3.67
2017-08-31T19:02:35.622Z,3.90
2017-08-31T19:05:03.735Z,4.67
2017-08-31T19:07:31.928Z,4.20
2017-08-31T19:10:00.104Z,4.47
2017-08-31T19:12:28.225Z,4.00
2017-08-31T19:14:56.417Z,5.83
2017-08-31T19:17:24.791Z,5.10
2017-08-31T19:19:53.034Z,4.43
2017-08-31T19:22:21.223Z,4.87
2017-08-31T19:24:49.531Z,4.80
2017-08-31T19:27:17.943Z,4.57
2017-08-31T19:29:46.270Z,4.07
2017-08-31T19:32:14.424Z,3.87
2017-08-31T19:34:42.675Z,4.13
2017-08-31T19:37:10.898Z,3.73
2017-08-31T19:39:39.049Z,3.80
2017-08-31T19:42:07.271Z,4.47
2017-08-31T19:44:35.456Z,4.00
2017-08-31T19:47:04.160Z,3.30
2017-08-31T19:49:33.175Z,3.60
2017-08-31T19:52:01.392Z,4.47
2017-08-31T19:54:29.558Z,4.97
2017-08-31T19:56:57.737Z,4.50
2017-08-31T19:59:25.973Z,5.10
2017-08-31T20:01:54.137Z,4.47
2017-08-31T20:04:23.107Z,4.73
2017-08-31T20:06:51.320Z,4.20
2017-08-31T20:09:19.555Z,4.13
2017-08-31T20:11:47.732Z,4.50
2017-08-31T20:14:15.949Z,4.23
2017-08-31T20:16:44.188Z,4.00
2017-08-31T20:19:12.393Z,4.40
2017-08-31T20:21:40.545Z,4.37
2017-08-31T20:24:08.762Z,3.73
2017-08-31T20:26:36.980Z,4.00
2017-08-31T20:29:05.197Z,3.40
2017-08-31T20:31:33.376Z,3.67
2017-08-31T20:34:01.612Z,3.67
2017-08-31T20:36:29.809Z,3.30
2017-08-31T20:38:58.061Z,3.77
2017-08-31T20:41:26.311Z,3.80
2017-08-31T20:43:54.473Z,3.87
2017-08-31T20:46:22.693Z,3.67
2017-08-31T20:48:50.890Z,4.17
2017-08-31T20:51:19.084Z,3.83
2017-08-31T20:53:47.244Z,3.70
2017-08-31T20:56:15.368Z,3.60
2017-08-31T20:58:43.517Z,3.87
2017-08-31T21:01:11.669Z,3.63
2017-08-31T21:03:39.826Z,4.17
2017-08-31T21:06:08.021Z,4.33
2017-08-31T21:08:36.170Z,4.43
2017-08-31T21:13:38.911Z,4.13
2017-08-31T21:16:07.009Z,5.47
2017-08-31T21:18:35.081Z,4.50
2017-08-31T21:21:03.199Z,4.80
2017-08-31T21:23:31.263Z,4.60
2017-08-31T21:25:59.372Z,5.77
2017-08-31T21:28:27.439Z,4.77
2017-08-31T21:30:55.526Z,4.40
2017-08-31T21:33:23.607Z,4.70
2017-08-31T21:35:51.675Z,4.80
2017-08-31T21:38:19.743Z,4.90
2017-08-31T21:40:49.026Z,4.50
2017-08-31T21:43:17.226Z,4.20
2017-08-31T21:45:45.341Z,4.57
2017-08-31T21:48:13.506Z,4.93
2017-08-31T21:50:41.617Z,4.70
2017-08-31T21:53:09.723Z,5.07
2017-08-31T21:55:37.855Z,4.80
2017-08-31T21:58:05.992Z,5.63
2017-08-31T22:00:34.098Z,4.27
2017-08-31T22:03:02.207Z,5.20
2017-08-31T22:05:30.301Z,4.70
2017-08-31T22:07:58.469Z,5.70
2017-08-31T22:10:26.574Z,5.50
2017-08-31T22:12:54.698Z,5.20
2017-08-31T22:15:22.861Z,5.33
2017-08-31T22:17:50.973Z,6.07
2017-08-31T22:20:19.084Z,5.80
2017-08-31T22:22:47.252Z,5.47
2017-08-31T22:25:15.352Z,6.00
2017-08-31T22:27:43.461Z,5.50
2017-08-31T22:30:11.573Z,5.37
2017-08-31T22:32:39.725Z,5.63
2017-08-31T22:35:07.850Z,5.83
2017-08-31T22:37:36.005Z,5.97
2017-08-31T22:40:04.097Z,5.80
2017-08-31T22:42:32.216Z,5.70
2017-08-31T22:45:00.317Z,6.33
2017-08-31T22:47:28.417Z,5.27
2017-08-31T22:49:56.509Z,6.20
2017-08-31T22:52:24.599Z,6.50
2017-08-31T22:54:52.797Z,6.63
2017-08-31T23:00:38.977Z,7.83
2017-08-31T23:03:07.221Z,7.40
2017-08-31T23:05:35.313Z,7.63
2017-08-31T23:08:03.407Z,7.30
2017-08-31T23:10:31.499Z,6.83
2017-08-31T23:13:00.350Z,6.93
2017-08-31T23:15:28.448Z,6.60
2017-08-31T23:17:56.555Z,5.77
2017-08-31T23:20:24.668Z,6.03
2017-08-31T23:22:52.769Z,6.70
2017-08-31T23:25:20.896Z,5.60
2017-08-31T23:27:48.996Z,6.50
2017-08-31T23:30:17.209Z,6.13
2017-08-31T23:32:45.305Z,6.77
2017-08-31T23:35:13.405Z,6.60
2017-08-31T23:37:41.492Z,6.20
2017-08-31T23:40:09.603Z,5.33
2017-08-31T23:42:37.717Z,5.37
2017-08-31T23:45:05.810Z,5.83
2017-08-31T23:47:33.969Z,5.80
2017-08-31T23:50:02.065Z,5.60
2017-08-31T23:52:30.183Z,5.93
2017-08-31T23:54:58.278Z,5.03
2017-08-31T23:57:26.388Z,4.43
2017-08-31T23:59:54.487Z,5.47
